To NAV CANADA Home Page Login to a new session Search on AWWS site Disclaimer Vers la page française équivalente Tips FAQ What's new on the site To the Forecasts and Observations / NOTAM section To "File a Flight Plan" website Publications and other links Update of the User's profile FIC Telephone Numbers My Weather Data Folder Route Weather Data Regional Weather Data Local Weather Data To the Forecasts and Observations / NOTAM section
Request Generated 01/26/2021 at 20:26:37 UTC . Weather information available at that time is displayed.

METAR/TAF

WINDSOR/ON    (show WxCam)

SPECI CYQG 262018Z AUTO 35009KT 6SM -FZRA BR OVC011 M00/M02 A2974 RMK ICG SLP085=
METAR CYQG 262000Z AUTO 34010G16KT 5SM -FZRA BR OVC013 M00/M02 A2973 RMK ICG INTMT SLP083=
SPECI CYQG 261944Z AUTO 35011G17KT 8SM -FZRA BKN013 OVC017 M00/M02 A2972 RMK ICG PRESRR SLP078=
SPECI CYQG 261927Z AUTO 36007KT 9SM -RA OVC015 00/M02 A2971 RMK SLP072=
METAR CYQG 261900Z AUTO 36007KT 9SM OVC017 00/M02 A2971 RMK SLP070=
METAR CYQG 261800Z AUTO 02009G15KT 9SM SCT009 BKN016 OVC035 00/M02 A2969 RMK SLP066=

TAF AMD CYQG 262008Z 2620/2718 34010G20KT 2SM -SN BR OVC008 TEMPO
2620/2702 6SM -FZDZ OVC012
FM270200 33012KT P6SM BKN025 TEMPO 2702/2708 BKN020
FM270800 33012KT P6SM SCT030
BECMG 2716/2718 34008KT
RMK FCST BASED ON AUTO OBS. NXT FCST BY 270000Z=

LONDON/ON    

METAR CYXU 262000Z 02006KT 350V070 10SM -SN BKN009 OVC014 M01/M03 A2968 RMK SF5NS3 SLP062=
METAR CYXU 261900Z 06008KT 4SM -SN DRSN BKN009 OVC022 M01/M03 A2965 RMK SF5NS3 SLP052=
SPECI CYXU 261850Z 08011KT 3SM -SN DRSN OVC009 M01/M03 A2965 RMK NS8 SLP053=
METAR CYXU 261800Z 08013KT 1SM R15/P6000FT/N -SN DRSN OVC009 M01/M03 A2965 RMK SN4NS4 VIS VRB 3/4-1 1/2 /S04/ SLP052=

TAF AMD CYXU 261745Z 2618/2718 08015G25KT 1SM -SN BR OVC005 TEMPO
2618/2620 3SM -SN SCT005 OVC010 PROB30 2618/2620 2SM -FZDZ BR
FM262000 04012G22KT 2SM -SN OVC008 TEMPO 2620/2623 6SM -SN OVC015
PROB30 2620/2623 2SM -FZDZ BR OVC005
FM262300 01010G20KT 6SM -SN OVC025 TEMPO 2623/2703 4SM -SN OVC015
FM270300 36007KT P6SM BKN020 TEMPO 2703/2709 BKN030
FM270900 34008KT P6SM SCT020
BECMG 2714/2716 35012KT
RMK NXT FCST BY 270000Z=

SARNIA (CHRIS HADFIELD)/ON    (show WxCam)

METAR CYZR 262000Z AUTO 04013G18KT 9SM -SN OVC015 M01/M04 A2973 RMK SLP079=
SPECI CYZR 261934Z AUTO 03012G18KT 9SM -SN OVC013 M01/M03 A2972 RMK SLP073=
METAR CYZR 261900Z AUTO 03013G18KT 9SM OVC011 M01/M03 A2970 RMK SLP066=
SPECI CYZR 261810Z AUTO 03013G18KT 9SM OVC011 M01/M02 A2970 RMK SLP064=
METAR CYZR 261800Z AUTO 03013G18KT 9SM OVC009 M01/M02 A2970 RMK SLP068=

TAF CYZR 261938Z 2620/2703 02015G25KT 6SM -SN OVC012 TEMPO 2620/2624
11/2SM -SN BR OVC008 PROB30 2620/2624 2SM -FZDZ BR
FM270000 01015G25KT 3SM -SN OVC015 TEMPO 2700/2703 6SM -SN OVC025
PROB30 2701/2703 3/4SM -SHSN VV006
RMK FCST BASED ON AUTO OBS. NXT FCST WILL BE ISSUED AT 270845Z=

KITCHENER/WATERLOO/ON    (show WxCam)

METAR CYKF 262000Z AUTO 04010KT 9SM -SN OVC013 M03/M05 A2966 RMK SLP061=
SPECI CYKF 261940Z AUTO 05008G15KT 6SM -SN BKN015 OVC020 M03/M05 A2966 RMK SLP062=
SPECI CYKF 261924Z AUTO 05013G20KT 5SM -SN BKN015 OVC020 M03/M05 A2965 RMK SLP058=
METAR CYKF 261900Z AUTO 06013G21KT 7SM -SN BKN015 BKN023 OVC042 M03/M05 A2964 RMK SLP055=
SPECI CYKF 261847Z AUTO 05013G19KT 6SM -SN OVC013 M03/M05 A2964 RMK SLP055=
SPECI CYKF 261829Z AUTO 06016G22KT 3SM -SN OVC013 M03/M05 A2964 RMK SLP055=
SPECI CYKF 261817Z AUTO 06015G21KT 2SM -SN OVC013 M03/M04 A2964 RMK SLP055=
SPECI CYKF 261801Z AUTO 06015G20KT 1 3/4SM -SN OVC013 M03/M05 A2965 RMK SLP058=
METAR CYKF 261800Z AUTO 06016KT 2SM -SN OVC013 M03/M05 A2965 RMK SLP056=

TAF CYKF 261938Z 2620/2708 06012G22KT 2SM -SN OVC012 TEMPO 2620/2624
6SM -SN OVC025 PROB30 2620/2624 2SM -FZDZ BR
FM270000 01010G20KT 5SM -SN OVC020 TEMPO 2700/2702 6SM -SN OVC025
FM270200 36010KT P6SM BKN030 TEMPO 2702/2704 5SM -SN BKN020
RMK FCST BASED ON AUTO OBS. NXT FCST BY 270200Z=

HAMILTON/ON    

SPECI CYHM 262022Z 04009G15KT 1 1/2SM -SN DRSN BKN005 OVC025 M02/M03 A2966 RMK SN2SC5SC1 SLP054=
METAR CYHM 262000Z 05012KT 1 1/2SM -SN DRSN BKN006 OVC025 M02/M03 A2965 RMK SN2CF3SC3 SLP051=
SPECI CYHM 261952Z 05010G16KT 1SM R12/4500VP6000FT/U -SN DRSN BKN004 OVC025 M02/M03 A2965 RMK SN3CF3SC2 SLP051=
SPECI CYHM 261937Z 06012KT 5/8SM R12/4500V5500FT/D -SN DRSN BKN005 VV009 M02/M03 A2964 RMK CF5SN3 SLP050=
SPECI CYHM 261927Z 06015G21KT 3/4SM R12/5500V6000FT/N -SN DRSN BKN006 VV010 M02/M03 A2964 RMK CF5SN3 SLP049=
METAR CYHM 261900Z 06015G23KT 1 1/4SM -SN DRSN BKN006 OVC024 M02/M03 A2964 RMK SN3CF4SC1 SLP049=
SPECI CYHM 261837Z 06016KT 1SM R12/5000V5500FT/N -SN DRSN BKN006 OVC009 M02/M03 A2963 RMK SN3CF4SC1 SLP046=
SPECI CYHM 261814Z 06016KT 3/4SM R12/4500V6000FT/U -SN DRSN OVC006 M02/M03 A2964 RMK SN5CF4 SLP050=
METAR CYHM 261800Z 06016KT 5/8SM R12/4500V5000FT/N -SN DRSN OVC005 M02/M03 A2965 RMK SN5CF3 /S05/ SLP053=

TAF AMD CYHM 261745Z 2618/2718 06015G25KT 3/4SM -SN OVC005 TEMPO
2618/2620 6SM -SN OVC010 PROB30 2618/2620 2SM -FZDZ BR
FM262000 05012G22KT 11/2SM -SN BR OVC005 TEMPO 2620/2624 6SM -SN
BR OVC012 PROB40 2620/2624 2SM -FZDZ BR
FM270000 36012G22KT 3SM -SN BKN008 OVC015 TEMPO 2700/2703 6SM -SN
SCT008 OVC015 PROB30 2700/2703 1SM -SN -FZDZ BR OVC005
FM270300 36010KT 5SM -SN OVC020
FM270500 35008KT P6SM BKN030
FM270700 34008KT P6SM SCT040
FM271700 01008KT P6SM BKN030
RMK NXT FCST BY 270000Z=

TORONTO/LESTER B. PEARSON INTL/ON    

SPECI CYYZ 262016Z 05009G16KT 3/4SM R06L/4500VP6000FT/D R05/P6000FT/N -SN VV006 M02/M04 A2971 RMK SN8 PRESRR SLP071=
METAR CYYZ 262000Z 06014KT 2 1/4SM -SN OVC012 M02/M04 A2970 RMK SN2NS6 SLP066=
METAR CYYZ 261900Z 06014G21KT 1 1/4SM -SN OVC013 M02/M04 A2969 RMK SN4NS4 /S01/ SLP065=
SPECI CYYZ 261839Z 07016G22KT 1 1/2SM -SN OVC010 M02/M04 A2969 RMK SN2NS6 SLP065=
METAR CYYZ 261800Z 06014G24KT 4SM -SN OVC013 M02/M04 A2972 RMK NS8 /S06/ SLP072=

TAF CYYZ 261738Z 2618/2724 06017G27KT 1SM -SN VV008 TEMPO 2618/2623
3SM -SN OVC012 PROB30 2618/2623 3/4SM -SN -FZDZ BR
FM262300 01013G23KT 2SM -SN OVC015 TEMPO 2623/2702 6SM -SN OVC025
PROB30 2700/2702 3SM -FZDZ BR
FM270200 01012G22KT 6SM -SN OVC025 TEMPO 2702/2705 3SM -SN OVC020
PROB30 2702/2705 5SM -FZDZ BR
FM270500 01010G20KT P6SM BKN020 OVC040
FM270800 35012KT P6SM BKN040
FM272300 35008KT P6SM SCT030
RMK NXT FCST BY 262100Z=
Your time UTC time
Weather data provided by Environment Canada and NAV CANADA